sensor_id;sensor_type;location;lat;lon;timestamp;temperature;humidity
52181;DHT22;38158;53.338;6.514;2023-04-29T00:00:53;8.50;99.90
52181;DHT22;38158;53.338;6.514;2023-04-29T00:03:18;8.50;99.90
52181;DHT22;38158;53.338;6.514;2023-04-29T00:05:44;8.50;99.90
52181;DHT22;38158;53.338;6.514;2023-04-29T00:08:10;8.50;99.90
52181;DHT22;38158;53.338;6.514;2023-04-29T00:10:36;8.50;99.90
52181;DHT22;38158;53.338;6.514;2023-04-29T00:13:02;8.50;99.90
52181;DHT22;38158;53.338;6.514;2023-04-29T00:15:28;8.50;99.90
52181;DHT22;38158;53.338;6.514;2023-04-29T00:17:54;8.50;99.90
52181;DHT22;38158;53.338;6.514;2023-04-29T00:20:20;8.50;99.90
52181;DHT22;38158;53.338;6.514;2023-04-29T00:22:46;8.40;99.90
52181;DHT22;38158;53.338;6.514;2023-04-29T00:25:12;8.40;99.90
52181;DHT22;38158;53.338;6.514;2023-04-29T00:27:37;8.40;99.90
52181;DHT22;38158;53.338;6.514;2023-04-29T00:30:06;8.40;99.90
52181;DHT22;38158;53.338;6.514;2023-04-29T00:32:32;8.40;99.90
52181;DHT22;38158;53.338;6.514;2023-04-29T00:34:58;8.40;99.90
52181;DHT22;38158;53.338;6.514;2023-04-29T00:37:24;8.40;99.90
52181;DHT22;38158;53.338;6.514;2023-04-29T00:39:49;8.40;99.90
52181;DHT22;38158;53.338;6.514;2023-04-29T00:42:15;8.40;99.90
52181;DHT22;38158;53.338;6.514;2023-04-29T00:44:41;8.40;99.90
52181;DHT22;38158;53.338;6.514;2023-04-29T00:47:06;8.40;99.90
52181;DHT22;38158;53.338;6.514;2023-04-29T00:49:39;8.40;99.90
52181;DHT22;38158;53.338;6.514;2023-04-29T00:52:05;8.40;99.90
52181;DHT22;38158;53.338;6.514;2023-04-29T00:54:34;8.40;99.90
52181;DHT22;38158;53.338;6.514;2023-04-29T00:57:03;8.40;99.90
52181;DHT22;38158;53.338;6.514;2023-04-29T00:59:30;8.40;99.90
52181;DHT22;38158;53.338;6.514;2023-04-29T01:02:01;8.40;99.90
52181;DHT22;38158;53.338;6.514;2023-04-29T01:04:28;8.40;99.90
52181;DHT22;38158;53.338;6.514;2023-04-29T01:07:14;8.40;99.90
52181;DHT22;38158;53.338;6.514;2023-04-29T01:09:46;8.50;99.90
52181;DHT22;38158;53.338;6.514;2023-04-29T01:12:25;8.40;99.90
52181;DHT22;38158;53.338;6.514;2023-04-29T01:17:40;8.40;99.90
52181;DHT22;38158;53.338;6.514;2023-04-29T01:20:08;8.50;99.90
52181;DHT22;38158;53.338;6.514;2023-04-29T01:22:34;8.40;99.90
52181;DHT22;38158;53.338;6.514;2023-04-29T01:25:00;8.30;99.90
52181;DHT22;38158;53.338;6.514;2023-04-29T01:27:33;8.30;99.90
52181;DHT22;38158;53.338;6.514;2023-04-29T01:33:02;8.10;99.90
52181;DHT22;38158;53.338;6.514;2023-04-29T01:41:22;7.80;99.90
52181;DHT22;38158;53.338;6.514;2023-04-29T01:43:50;7.80;99.90
52181;DHT22;38158;53.338;6.514;2023-04-29T01:46:17;7.70;99.90
52181;DHT22;38158;53.338;6.514;2023-04-29T01:48:45;7.70;99.90
52181;DHT22;38158;53.338;6.514;2023-04-29T01:51:12;7.60;99.90
52181;DHT22;38158;53.338;6.514;2023-04-29T01:53:38;7.60;99.90
52181;DHT22;38158;53.338;6.514;2023-04-29T01:56:09;7.60;99.90
52181;DHT22;38158;53.338;6.514;2023-04-29T01:58:35;7.60;99.90
52181;DHT22;38158;53.338;6.514;2023-04-29T02:01:00;7.70;99.90
52181;DHT22;38158;53.338;6.514;2023-04-29T02:03:26;7.70;99.90
52181;DHT22;38158;53.338;6.514;2023-04-29T02:05:52;7.80;99.90
52181;DHT22;38158;53.338;6.514;2023-04-29T02:08:17;7.80;99.90
52181;DHT22;38158;53.338;6.514;2023-04-29T02:10:57;7.90;99.90
52181;DHT22;38158;53.338;6.514;2023-04-29T02:13:23;7.90;99.90
52181;DHT22;38158;53.338;6.514;2023-04-29T02:15:49;7.90;99.90
52181;DHT22;38158;53.338;6.514;2023-04-29T02:18:15;8.00;99.90
52181;DHT22;38158;53.338;6.514;2023-04-29T02:20:41;8.00;99.90
52181;DHT22;38158;53.338;6.514;2023-04-29T02:23:06;8.10;99.90
52181;DHT22;38158;53.338;6.514;2023-04-29T02:25:32;8.10;99.90
52181;DHT22;38158;53.338;6.514;2023-04-29T02:27:58;8.10;99.90
52181;DHT22;38158;53.338;6.514;2023-04-29T02:30:23;8.10;99.90
52181;DHT22;38158;53.338;6.514;2023-04-29T02:32:49;8.10;99.90
52181;DHT22;38158;53.338;6.514;2023-04-29T02:35:15;8.10;99.90
52181;DHT22;38158;53.338;6.514;2023-04-29T02:37:41;8.10;99.90
52181;DHT22;38158;53.338;6.514;2023-04-29T02:40:07;8.10;99.90
52181;DHT22;38158;53.338;6.514;2023-04-29T02:42:33;8.10;99.90
52181;DHT22;38158;53.338;6.514;2023-04-29T02:44:59;8.10;99.90
52181;DHT22;38158;53.338;6.514;2023-04-29T02:47:25;8.10;99.90
52181;DHT22;38158;53.338;6.514;2023-04-29T02:49:51;8.10;99.90
52181;DHT22;38158;53.338;6.514;2023-04-29T02:52:16;8.10;99.90
52181;DHT22;38158;53.338;6.514;2023-04-29T02:54:43;8.10;99.90
52181;DHT22;38158;53.338;6.514;2023-04-29T02:57:09;8.10;99.90
52181;DHT22;38158;53.338;6.514;2023-04-29T02:59:35;8.20;99.90
52181;DHT22;38158;53.338;6.514;2023-04-29T03:02:01;8.20;99.90
52181;DHT22;38158;53.338;6.514;2023-04-29T03:04:27;8.20;99.90
52181;DHT22;38158;53.338;6.514;2023-04-29T03:06:56;8.20;99.90
52181;DHT22;38158;53.338;6.514;2023-04-29T03:09:22;8.20;99.90
52181;DHT22;38158;53.338;6.514;2023-04-29T03:11:48;8.20;99.90
52181;DHT22;38158;53.338;6.514;2023-04-29T03:14:14;8.20;99.90
52181;DHT22;38158;53.338;6.514;2023-04-29T03:16:40;8.20;99.90
52181;DHT22;38158;53.338;6.514;2023-04-29T03:19:05;8.20;99.90
52181;DHT22;38158;53.338;6.514;2023-04-29T03:21:31;8.20;99.90
52181;DHT22;38158;53.338;6.514;2023-04-29T03:23:57;8.20;99.90
52181;DHT22;38158;53.338;6.514;2023-04-29T03:26:23;8.20;99.90
52181;DHT22;38158;53.338;6.514;2023-04-29T03:28:50;8.20;99.90
52181;DHT22;38158;53.338;6.514;2023-04-29T03:31:15;8.20;99.90
52181;DHT22;38158;53.338;6.514;2023-04-29T03:33:41;8.20;99.90
52181;DHT22;38158;53.338;6.514;2023-04-29T03:36:07;8.20;99.90
52181;DHT22;38158;53.338;6.514;2023-04-29T03:38:34;8.20;99.90
52181;DHT22;38158;53.338;6.514;2023-04-29T03:40:59;8.20;99.90
52181;DHT22;38158;53.338;6.514;2023-04-29T03:43:26;8.20;99.90
52181;DHT22;38158;53.338;6.514;2023-04-29T03:45:51;8.20;99.90
52181;DHT22;38158;53.338;6.514;2023-04-29T03:48:17;8.20;99.90
52181;DHT22;38158;53.338;6.514;2023-04-29T03:50:44;8.20;99.90
52181;DHT22;38158;53.338;6.514;2023-04-29T03:53:11;8.20;99.90
52181;DHT22;38158;53.338;6.514;2023-04-29T03:55:37;8.20;99.90
52181;DHT22;38158;53.338;6.514;2023-04-29T03:58:02;8.20;99.90
52181;DHT22;38158;53.338;6.514;2023-04-29T04:00:30;8.20;99.90
52181;DHT22;38158;53.338;6.514;2023-04-29T04:02:56;8.20;99.90
52181;DHT22;38158;53.338;6.514;2023-04-29T04:05:22;8.20;99.90
52181;DHT22;38158;53.338;6.514;2023-04-29T04:07:50;8.20;99.90
52181;DHT22;38158;53.338;6.514;2023-04-29T04:10:16;8.20;99.90
52181;DHT22;38158;53.338;6.514;2023-04-29T04:12:41;8.20;99.90
52181;DHT22;38158;53.338;6.514;2023-04-29T04:15:07;8.20;99.90
52181;DHT22;38158;53.338;6.514;2023-04-29T04:17:33;8.20;99.90
52181;DHT22;38158;53.338;6.514;2023-04-29T04:19:58;8.20;99.90
52181;DHT22;38158;53.338;6.514;2023-04-29T04:22:24;8.20;99.90
52181;DHT22;38158;53.338;6.514;2023-04-29T04:24:50;8.10;99.90
52181;DHT22;38158;53.338;6.514;2023-04-29T04:27:15;8.10;99.90
52181;DHT22;38158;53.338;6.514;2023-04-29T04:29:41;8.10;99.90
52181;DHT22;38158;53.338;6.514;2023-04-29T04:32:07;8.20;99.90
52181;DHT22;38158;53.338;6.514;2023-04-29T04:34:32;8.10;99.90
52181;DHT22;38158;53.338;6.514;2023-04-29T04:36:58;8.10;99.90
52181;DHT22;38158;53.338;6.514;2023-04-29T04:39:24;8.10;99.90
52181;DHT22;38158;53.338;6.514;2023-04-29T04:41:49;8.10;99.90
52181;DHT22;38158;53.338;6.514;2023-04-29T04:44:15;8.10;99.90
52181;DHT22;38158;53.338;6.514;2023-04-29T04:46:41;8.10;99.90
52181;DHT22;38158;53.338;6.514;2023-04-29T04:49:07;8.10;99.90
52181;DHT22;38158;53.338;6.514;2023-04-29T04:51:33;8.10;99.90
52181;DHT22;38158;53.338;6.514;2023-04-29T04:53:59;8.10;99.90
52181;DHT22;38158;53.338;6.514;2023-04-29T04:56:24;8.10;99.90
52181;DHT22;38158;53.338;6.514;2023-04-29T04:58:50;8.10;99.90
52181;DHT22;38158;53.338;6.514;2023-04-29T05:01:15;8.20;99.90
52181;DHT22;38158;53.338;6.514;2023-04-29T05:03:41;8.10;99.90
52181;DHT22;38158;53.338;6.514;2023-04-29T05:06:07;8.20;99.90
52181;DHT22;38158;53.338;6.514;2023-04-29T05:08:32;8.20;99.90
52181;DHT22;38158;53.338;6.514;2023-04-29T05:10:58;8.20;99.90
52181;DHT22;38158;53.338;6.514;2023-04-29T05:13:24;8.20;99.90
52181;DHT22;38158;53.338;6.514;2023-04-29T05:15:50;8.20;99.90
52181;DHT22;38158;53.338;6.514;2023-04-29T05:18:15;8.20;99.90
52181;DHT22;38158;53.338;6.514;2023-04-29T05:20:41;8.10;99.90
52181;DHT22;38158;53.338;6.514;2023-04-29T05:23:07;8.00;99.90
52181;DHT22;38158;53.338;6.514;2023-04-29T05:25:33;8.00;99.90
52181;DHT22;38158;53.338;6.514;2023-04-29T05:27:59;7.90;99.90
52181;DHT22;38158;53.338;6.514;2023-04-29T05:30:24;7.90;99.90
52181;DHT22;38158;53.338;6.514;2023-04-29T05:32:50;7.90;99.90
52181;DHT22;38158;53.338;6.514;2023-04-29T05:35:17;7.90;99.90
52181;DHT22;38158;53.338;6.514;2023-04-29T05:37:42;7.90;99.90
52181;DHT22;38158;53.338;6.514;2023-04-29T05:40:09;7.90;99.90
52181;DHT22;38158;53.338;6.514;2023-04-29T05:42:34;7.90;99.90
52181;DHT22;38158;53.338;6.514;2023-04-29T05:45:00;7.90;99.90
52181;DHT22;38158;53.338;6.514;2023-04-29T05:47:26;7.90;99.90
52181;DHT22;38158;53.338;6.514;2023-04-29T05:49:51;7.90;99.90
52181;DHT22;38158;53.338;6.514;2023-04-29T05:52:17;7.90;99.90
52181;DHT22;38158;53.338;6.514;2023-04-29T05:54:43;8.00;99.90
52181;DHT22;38158;53.338;6.514;2023-04-29T05:57:08;8.00;99.90
52181;DHT22;38158;53.338;6.514;2023-04-29T05:59:34;8.10;99.90
52181;DHT22;38158;53.338;6.514;2023-04-29T06:02:00;8.20;99.90
52181;DHT22;38158;53.338;6.514;2023-04-29T06:04:26;8.30;99.90
52181;DHT22;38158;53.338;6.514;2023-04-29T06:06:53;8.50;99.90
52181;DHT22;38158;53.338;6.514;2023-04-29T06:09:21;8.50;99.90
52181;DHT22;38158;53.338;6.514;2023-04-29T06:11:50;8.60;99.90
52181;DHT22;38158;53.338;6.514;2023-04-29T06:14:16;8.70;99.90
52181;DHT22;38158;53.338;6.514;2023-04-29T06:16:42;8.80;99.90
52181;DHT22;38158;53.338;6.514;2023-04-29T06:19:08;8.90;99.90
52181;DHT22;38158;53.338;6.514;2023-04-29T06:21:33;9.00;99.90
52181;DHT22;38158;53.338;6.514;2023-04-29T06:23:59;9.10;99.90
52181;DHT22;38158;53.338;6.514;2023-04-29T06:26:25;9.10;99.90
52181;DHT22;38158;53.338;6.514;2023-04-29T06:28:50;9.20;99.90
52181;DHT22;38158;53.338;6.514;2023-04-29T06:31:16;9.20;99.90
52181;DHT22;38158;53.338;6.514;2023-04-29T06:33:42;9.30;99.90
52181;DHT22;38158;53.338;6.514;2023-04-29T06:36:08;9.30;99.90
52181;DHT22;38158;53.338;6.514;2023-04-29T06:38:33;9.30;99.90
52181;DHT22;38158;53.338;6.514;2023-04-29T06:40:59;9.40;99.90
52181;DHT22;38158;53.338;6.514;2023-04-29T06:43:29;9.40;99.90
52181;DHT22;38158;53.338;6.514;2023-04-29T06:45:55;9.50;99.90
52181;DHT22;38158;53.338;6.514;2023-04-29T06:48:21;9.50;99.90
52181;DHT22;38158;53.338;6.514;2023-04-29T06:50:51;9.60;99.90
52181;DHT22;38158;53.338;6.514;2023-04-29T06:53:17;9.60;99.90
52181;DHT22;38158;53.338;6.514;2023-04-29T06:55:43;9.60;99.90
52181;DHT22;38158;53.338;6.514;2023-04-29T06:58:11;9.70;99.90
52181;DHT22;38158;53.338;6.514;2023-04-29T07:00:37;9.80;99.90
52181;DHT22;38158;53.338;6.514;2023-04-29T07:03:03;9.90;99.90
52181;DHT22;38158;53.338;6.514;2023-04-29T07:05:29;9.90;99.90
52181;DHT22;38158;53.338;6.514;2023-04-29T07:07:55;9.90;99.90
52181;DHT22;38158;53.338;6.514;2023-04-29T07:10:20;10.00;99.90
52181;DHT22;38158;53.338;6.514;2023-04-29T07:12:46;10.00;99.90
52181;DHT22;38158;53.338;6.514;2023-04-29T07:15:12;10.00;99.90
52181;DHT22;38158;53.338;6.514;2023-04-29T07:17:37;10.00;99.90
52181;DHT22;38158;53.338;6.514;2023-04-29T07:20:04;10.10;99.90
52181;DHT22;38158;53.338;6.514;2023-04-29T07:22:30;10.00;99.90
52181;DHT22;38158;53.338;6.514;2023-04-29T07:24:55;10.10;99.90
52181;DHT22;38158;53.338;6.514;2023-04-29T07:27:22;10.10;99.90
52181;DHT22;38158;53.338;6.514;2023-04-29T07:29:47;10.10;99.90
52181;DHT22;38158;53.338;6.514;2023-04-29T07:32:14;10.20;99.90
52181;DHT22;38158;53.338;6.514;2023-04-29T07:34:40;10.30;99.90
52181;DHT22;38158;53.338;6.514;2023-04-29T07:37:06;10.40;99.90
52181;DHT22;38158;53.338;6.514;2023-04-29T07:39:31;10.40;99.90
52181;DHT22;38158;53.338;6.514;2023-04-29T07:41:57;10.50;99.90
52181;DHT22;38158;53.338;6.514;2023-04-29T07:44:24;10.50;99.90
52181;DHT22;38158;53.338;6.514;2023-04-29T07:46:50;10.60;99.90
52181;DHT22;38158;53.338;6.514;2023-04-29T07:49:15;10.70;99.90
52181;DHT22;38158;53.338;6.514;2023-04-29T07:51:41;10.70;99.90
52181;DHT22;38158;53.338;6.514;2023-04-29T07:54:08;10.70;99.90
52181;DHT22;38158;53.338;6.514;2023-04-29T07:56:34;10.70;99.90
52181;DHT22;38158;53.338;6.514;2023-04-29T07:59:00;10.70;99.90
52181;DHT22;38158;53.338;6.514;2023-04-29T08:01:26;10.80;99.90
52181;DHT22;38158;53.338;6.514;2023-04-29T08:03:53;10.80;99.90
52181;DHT22;38158;53.338;6.514;2023-04-29T08:06:19;10.90;99.90
52181;DHT22;38158;53.338;6.514;2023-04-29T08:08:47;11.00;99.90
52181;DHT22;38158;53.338;6.514;2023-04-29T08:11:19;11.20;99.90
52181;DHT22;38158;53.338;6.514;2023-04-29T08:13:45;11.30;99.90
52181;DHT22;38158;53.338;6.514;2023-04-29T08:16:11;11.30;99.90
52181;DHT22;38158;53.338;6.514;2023-04-29T08:18:38;11.40;99.90
52181;DHT22;38158;53.338;6.514;2023-04-29T08:21:04;11.30;99.90
52181;DHT22;38158;53.338;6.514;2023-04-29T08:23:30;11.30;99.90
52181;DHT22;38158;53.338;6.514;2023-04-29T08:25:56;11.30;99.90
52181;DHT22;38158;53.338;6.514;2023-04-29T08:28:22;11.50;99.90
52181;DHT22;38158;53.338;6.514;2023-04-29T08:30:47;11.50;99.90
52181;DHT22;38158;53.338;6.514;2023-04-29T08:33:14;11.60;99.90
52181;DHT22;38158;53.338;6.514;2023-04-29T08:35:40;11.60;99.90
52181;DHT22;38158;53.338;6.514;2023-04-29T08:38:07;11.60;99.90
52181;DHT22;38158;53.338;6.514;2023-04-29T08:40:41;11.60;99.90
52181;DHT22;38158;53.338;6.514;2023-04-29T08:43:08;11.60;99.90
52181;DHT22;38158;53.338;6.514;2023-04-29T08:45:35;11.60;99.90
52181;DHT22;38158;53.338;6.514;2023-04-29T08:48:06;11.80;99.90
52181;DHT22;38158;53.338;6.514;2023-04-29T08:50:36;11.80;99.90
52181;DHT22;38158;53.338;6.514;2023-04-29T08:53:04;11.90;99.90
52181;DHT22;38158;53.338;6.514;2023-04-29T08:55:31;12.00;99.90
52181;DHT22;38158;53.338;6.514;2023-04-29T08:58:01;12.00;99.90
52181;DHT22;38158;53.338;6.514;2023-04-29T09:00:27;12.00;99.90
52181;DHT22;38158;53.338;6.514;2023-04-29T09:02:56;12.10;99.90
52181;DHT22;38158;53.338;6.514;2023-04-29T09:05:23;12.00;99.90
52181;DHT22;38158;53.338;6.514;2023-04-29T09:07:50;12.10;99.90
52181;DHT22;38158;53.338;6.514;2023-04-29T09:10:17;12.10;99.90
52181;DHT22;38158;53.338;6.514;2023-04-29T09:12:44;12.30;99.90
52181;DHT22;38158;53.338;6.514;2023-04-29T09:15:10;12.30;99.90
52181;DHT22;38158;53.338;6.514;2023-04-29T09:17:44;12.30;99.90
52181;DHT22;38158;53.338;6.514;2023-04-29T09:22:48;12.30;99.90
52181;DHT22;38158;53.338;6.514;2023-04-29T09:25:14;12.30;99.90
52181;DHT22;38158;53.338;6.514;2023-04-29T09:27:40;12.10;99.90
52181;DHT22;38158;53.338;6.514;2023-04-29T09:30:06;12.00;99.90
52181;DHT22;38158;53.338;6.514;2023-04-29T09:32:32;11.90;99.90
52181;DHT22;38158;53.338;6.514;2023-04-29T09:34:58;11.90;99.90
52181;DHT22;38158;53.338;6.514;2023-04-29T09:37:44;11.90;99.90
52181;DHT22;38158;53.338;6.514;2023-04-29T09:40:30;12.00;99.90
52181;DHT22;38158;53.338;6.514;2023-04-29T09:42:56;12.10;99.90
52181;DHT22;38158;53.338;6.514;2023-04-29T09:45:40;12.10;99.90
52181;DHT22;38158;53.338;6.514;2023-04-29T09:48:08;12.20;99.90
52181;DHT22;38158;53.338;6.514;2023-04-29T09:50:35;12.20;99.90
52181;DHT22;38158;53.338;6.514;2023-04-29T09:53:05;12.20;99.90
52181;DHT22;38158;53.338;6.514;2023-04-29T09:58:27;12.50;99.90
52181;DHT22;38158;53.338;6.514;2023-04-29T10:00:55;12.40;99.90
52181;DHT22;38158;53.338;6.514;2023-04-29T10:03:24;12.40;99.90
52181;DHT22;38158;53.338;6.514;2023-04-29T10:05:51;12.40;99.90
52181;DHT22;38158;53.338;6.514;2023-04-29T10:08:17;12.40;99.90
52181;DHT22;38158;53.338;6.514;2023-04-29T10:10:43;12.60;99.90
52181;DHT22;38158;53.338;6.514;2023-04-29T10:13:10;12.70;99.90
52181;DHT22;38158;53.338;6.514;2023-04-29T10:15:48;12.80;99.90
52181;DHT22;38158;53.338;6.514;2023-04-29T10:18:20;12.90;99.90
52181;DHT22;38158;53.338;6.514;2023-04-29T10:20:47;12.90;99.90
52181;DHT22;38158;53.338;6.514;2023-04-29T10:23:14;12.90;99.90
52181;DHT22;38158;53.338;6.514;2023-04-29T10:25:43;12.80;99.90
52181;DHT22;38158;53.338;6.514;2023-04-29T10:28:13;12.80;99.90
52181;DHT22;38158;53.338;6.514;2023-04-29T10:30:44;12.80;99.90
52181;DHT22;38158;53.338;6.514;2023-04-29T10:33:10;12.80;99.90
52181;DHT22;38158;53.338;6.514;2023-04-29T10:35:36;12.80;99.90
52181;DHT22;38158;53.338;6.514;2023-04-29T10:38:16;12.80;99.90
52181;DHT22;38158;53.338;6.514;2023-04-29T10:40:46;12.80;99.90
52181;DHT22;38158;53.338;6.514;2023-04-29T10:43:14;12.90;99.90
52181;DHT22;38158;53.338;6.514;2023-04-29T10:45:40;13.00;99.90
52181;DHT22;38158;53.338;6.514;2023-04-29T10:48:12;13.00;99.90
52181;DHT22;38158;53.338;6.514;2023-04-29T10:53:08;13.20;99.90
52181;DHT22;38158;53.338;6.514;2023-04-29T10:55:37;13.20;99.90
52181;DHT22;38158;53.338;6.514;2023-04-29T10:58:04;13.20;99.90
52181;DHT22;38158;53.338;6.514;2023-04-29T11:00:34;13.20;99.90
52181;DHT22;38158;53.338;6.514;2023-04-29T11:03:04;13.20;99.90
52181;DHT22;38158;53.338;6.514;2023-04-29T11:05:34;13.10;99.90
52181;DHT22;38158;53.338;6.514;2023-04-29T11:08:14;13.00;99.90
52181;DHT22;38158;53.338;6.514;2023-04-29T11:10:49;13.00;99.90
52181;DHT22;38158;53.338;6.514;2023-04-29T11:13:26;13.10;99.90
52181;DHT22;38158;53.338;6.514;2023-04-29T11:18:28;12.90;99.90
52181;DHT22;38158;53.338;6.514;2023-04-29T11:23:29;13.00;99.90
52181;DHT22;38158;53.338;6.514;2023-04-29T11:25:54;13.10;99.90
52181;DHT22;38158;53.338;6.514;2023-04-29T11:28:22;13.20;99.90
52181;DHT22;38158;53.338;6.514;2023-04-29T11:30:49;13.30;99.90
52181;DHT22;38158;53.338;6.514;2023-04-29T11:33:15;13.20;99.90
52181;DHT22;38158;53.338;6.514;2023-04-29T11:35:41;13.10;99.90
52181;DHT22;38158;53.338;6.514;2023-04-29T11:38:08;13.10;99.90
52181;DHT22;38158;53.338;6.514;2023-04-29T11:40:34;13.00;99.90
52181;DHT22;38158;53.338;6.514;2023-04-29T11:43:00;13.10;99.90
52181;DHT22;38158;53.338;6.514;2023-04-29T11:45:25;13.00;99.90
52181;DHT22;38158;53.338;6.514;2023-04-29T11:47:52;12.90;99.90
52181;DHT22;38158;53.338;6.514;2023-04-29T11:50:18;13.10;99.90
52181;DHT22;38158;53.338;6.514;2023-04-29T11:52:47;13.20;99.90
52181;DHT22;38158;53.338;6.514;2023-04-29T11:55:13;13.10;99.90
52181;DHT22;38158;53.338;6.514;2023-04-29T11:57:39;13.00;99.90
52181;DHT22;38158;53.338;6.514;2023-04-29T12:00:09;13.00;99.90
52181;DHT22;38158;53.338;6.514;2023-04-29T12:02:37;13.10;99.90
52181;DHT22;38158;53.338;6.514;2023-04-29T12:05:06;13.20;99.90
52181;DHT22;38158;53.338;6.514;2023-04-29T12:07:33;13.40;99.90
52181;DHT22;38158;53.338;6.514;2023-04-29T12:10:00;13.50;99.90
52181;DHT22;38158;53.338;6.514;2023-04-29T12:12:25;13.60;99.90
52181;DHT22;38158;53.338;6.514;2023-04-29T12:14:56;13.70;99.90
52181;DHT22;38158;53.338;6.514;2023-04-29T12:17:22;13.80;99.90
52181;DHT22;38158;53.338;6.514;2023-04-29T12:19:49;13.80;99.90
52181;DHT22;38158;53.338;6.514;2023-04-29T12:22:14;13.90;99.90
52181;DHT22;38158;53.338;6.514;2023-04-29T12:24:40;14.00;99.90
52181;DHT22;38158;53.338;6.514;2023-04-29T12:27:10;14.10;99.90
52181;DHT22;38158;53.338;6.514;2023-04-29T12:29:37;14.10;99.90
52181;DHT22;38158;53.338;6.514;2023-04-29T12:32:03;14.10;99.90
52181;DHT22;38158;53.338;6.514;2023-04-29T12:34:30;14.10;99.90
52181;DHT22;38158;53.338;6.514;2023-04-29T12:36:56;14.10;99.90
52181;DHT22;38158;53.338;6.514;2023-04-29T12:39:23;14.10;99.90
52181;DHT22;38158;53.338;6.514;2023-04-29T12:41:53;14.10;99.90
52181;DHT22;38158;53.338;6.514;2023-04-29T12:44:19;14.10;99.90
52181;DHT22;38158;53.338;6.514;2023-04-29T12:46:44;14.10;99.90
52181;DHT22;38158;53.338;6.514;2023-04-29T12:49:10;14.00;99.90
52181;DHT22;38158;53.338;6.514;2023-04-29T12:51:36;14.00;99.90
52181;DHT22;38158;53.338;6.514;2023-04-29T12:54:03;14.00;99.90
52181;DHT22;38158;53.338;6.514;2023-04-29T12:56:29;13.90;99.90
52181;DHT22;38158;53.338;6.514;2023-04-29T12:58:56;13.90;99.90
52181;DHT22;38158;53.338;6.514;2023-04-29T13:01:28;13.80;99.90
52181;DHT22;38158;53.338;6.514;2023-04-29T13:03:54;13.70;99.90
52181;DHT22;38158;53.338;6.514;2023-04-29T13:06:20;13.60;99.90
52181;DHT22;38158;53.338;6.514;2023-04-29T13:08:46;13.50;99.90
52181;DHT22;38158;53.338;6.514;2023-04-29T13:11:11;13.40;99.90
52181;DHT22;38158;53.338;6.514;2023-04-29T13:13:37;13.40;99.90
52181;DHT22;38158;53.338;6.514;2023-04-29T13:16:03;13.40;99.90
52181;DHT22;38158;53.338;6.514;2023-04-29T13:18:29;13.50;99.90
52181;DHT22;38158;53.338;6.514;2023-04-29T13:20:55;13.50;99.90
52181;DHT22;38158;53.338;6.514;2023-04-29T13:23:21;13.50;99.90
52181;DHT22;38158;53.338;6.514;2023-04-29T13:25:46;13.50;99.90
52181;DHT22;38158;53.338;6.514;2023-04-29T13:28:14;13.40;99.90
52181;DHT22;38158;53.338;6.514;2023-04-29T13:30:40;13.40;99.90
52181;DHT22;38158;53.338;6.514;2023-04-29T13:33:06;13.40;99.90
52181;DHT22;38158;53.338;6.514;2023-04-29T13:35:32;13.40;99.90
52181;DHT22;38158;53.338;6.514;2023-04-29T13:38:00;13.50;99.90
52181;DHT22;38158;53.338;6.514;2023-04-29T13:40:26;13.40;99.90
52181;DHT22;38158;53.338;6.514;2023-04-29T13:42:52;13.40;99.90
52181;DHT22;38158;53.338;6.514;2023-04-29T13:45:18;13.50;99.90
52181;DHT22;38158;53.338;6.514;2023-04-29T13:47:44;13.40;99.90
52181;DHT22;38158;53.338;6.514;2023-04-29T13:50:10;13.20;99.90
52181;DHT22;38158;53.338;6.514;2023-04-29T13:52:35;13.10;99.90
52181;DHT22;38158;53.338;6.514;2023-04-29T13:55:01;13.00;99.90
52181;DHT22;38158;53.338;6.514;2023-04-29T13:57:27;12.80;99.90
52181;DHT22;38158;53.338;6.514;2023-04-29T13:59:53;12.70;99.90
52181;DHT22;38158;53.338;6.514;2023-04-29T14:02:20;12.60;99.90
52181;DHT22;38158;53.338;6.514;2023-04-29T14:04:46;12.50;99.90
52181;DHT22;38158;53.338;6.514;2023-04-29T14:07:12;12.50;99.90
52181;DHT22;38158;53.338;6.514;2023-04-29T14:09:38;12.50;99.90
52181;DHT22;38158;53.338;6.514;2023-04-29T14:12:04;12.40;99.90
52181;DHT22;38158;53.338;6.514;2023-04-29T14:14:30;12.30;99.90
52181;DHT22;38158;53.338;6.514;2023-04-29T14:16:57;12.20;99.90
52181;DHT22;38158;53.338;6.514;2023-04-29T14:19:22;12.10;99.90
52181;DHT22;38158;53.338;6.514;2023-04-29T14:21:48;12.10;99.90
52181;DHT22;38158;53.338;6.514;2023-04-29T14:24:14;12.10;99.90
52181;DHT22;38158;53.338;6.514;2023-04-29T14:26:40;12.10;99.90
52181;DHT22;38158;53.338;6.514;2023-04-29T14:29:06;12.10;99.90
52181;DHT22;38158;53.338;6.514;2023-04-29T14:31:35;12.00;99.90
52181;DHT22;38158;53.338;6.514;2023-04-29T14:34:04;12.10;99.90
52181;DHT22;38158;53.338;6.514;2023-04-29T14:36:30;12.20;99.90
52181;DHT22;38158;53.338;6.514;2023-04-29T14:38:59;12.20;99.90
52181;DHT22;38158;53.338;6.514;2023-04-29T14:41:28;12.20;99.90
52181;DHT22;38158;53.338;6.514;2023-04-29T14:43:54;12.20;99.90
52181;DHT22;38158;53.338;6.514;2023-04-29T14:46:20;12.20;99.90
52181;DHT22;38158;53.338;6.514;2023-04-29T14:48:48;12.20;99.90
52181;DHT22;38158;53.338;6.514;2023-04-29T14:51:13;12.10;99.90
52181;DHT22;38158;53.338;6.514;2023-04-29T14:53:39;12.00;99.90
52181;DHT22;38158;53.338;6.514;2023-04-29T14:56:05;11.90;99.90
52181;DHT22;38158;53.338;6.514;2023-04-29T14:58:32;11.90;99.90
52181;DHT22;38158;53.338;6.514;2023-04-29T15:00:58;12.00;99.90
52181;DHT22;38158;53.338;6.514;2023-04-29T15:03:23;12.00;99.90
52181;DHT22;38158;53.338;6.514;2023-04-29T15:05:49;12.00;99.90
52181;DHT22;38158;53.338;6.514;2023-04-29T15:08:15;12.10;99.90
52181;DHT22;38158;53.338;6.514;2023-04-29T15:10:43;12.00;99.90
52181;DHT22;38158;53.338;6.514;2023-04-29T15:13:11;12.10;99.90
52181;DHT22;38158;53.338;6.514;2023-04-29T15:15:36;12.10;99.90
52181;DHT22;38158;53.338;6.514;2023-04-29T15:18:02;12.00;99.90
52181;DHT22;38158;53.338;6.514;2023-04-29T15:20:30;12.00;99.90
52181;DHT22;38158;53.338;6.514;2023-04-29T15:22:57;11.90;99.90
52181;DHT22;38158;53.338;6.514;2023-04-29T15:25:22;11.90;99.90
52181;DHT22;38158;53.338;6.514;2023-04-29T15:27:48;11.80;99.90
52181;DHT22;38158;53.338;6.514;2023-04-29T15:30:14;11.70;99.90
52181;DHT22;38158;53.338;6.514;2023-04-29T15:32:41;11.70;99.90
52181;DHT22;38158;53.338;6.514;2023-04-29T15:35:07;11.70;99.90
52181;DHT22;38158;53.338;6.514;2023-04-29T15:37:32;11.60;99.90
52181;DHT22;38158;53.338;6.514;2023-04-29T15:39:59;11.60;99.90
52181;DHT22;38158;53.338;6.514;2023-04-29T15:42:25;11.60;99.90
52181;DHT22;38158;53.338;6.514;2023-04-29T15:44:51;11.50;99.90
52181;DHT22;38158;53.338;6.514;2023-04-29T15:47:16;11.50;99.90
52181;DHT22;38158;53.338;6.514;2023-04-29T15:49:42;11.40;99.90
52181;DHT22;38158;53.338;6.514;2023-04-29T15:52:08;11.30;99.90
52181;DHT22;38158;53.338;6.514;2023-04-29T15:54:34;11.20;99.90
52181;DHT22;38158;53.338;6.514;2023-04-29T15:57:00;11.10;99.90
52181;DHT22;38158;53.338;6.514;2023-04-29T15:59:28;11.00;99.90